Redlands, CA (92374)

9:25 PM PST on March 02, 2015 (GMT -0800)
University of Redlands | Change Station
CLOSE
Current Station
Personal Weather Station
Location: Redlands, CA
Elevation: 1473 ft
Nearby Weather Stations

Elev 1473 ft 34.06 °N, 117.16 °W | Updated 11 seconds ago

Partly Cloudy
Partly Cloudy
43.6 °F
Feels Like 44 °F
N
0.0
Wind Variable Wind from NNE
Gusts 0.0 mph

Today
High -- | Low -- °F
--% Chance of Precip.
Yesterday
High -- | Low -- °F
Precip. -- in
6:16 AM 5:45 PM
Waxing Gibbous, 94% visible
Pressure 29.98 in
Visibility 10.0 miles
Clouds Mostly Cloudy 2400 ft
Overcast 4700 ft
Windchill 44 °F
Dew Point 41 °F
Humidity 90%
Rainfall 0.00 in
Snow Depth Not available.
UV 0 out of 12
Pollen 7.80 out of 12
Air Quality Not available.
Flu Activity Not available.
METAR KSBD 030449Z 08006KT 10SM BKN024 OVC047 09/04 A2998

More Conditions Fewer Conditions

Pressure 29.98 in
Visibility 10.0 miles
Clouds Mostly Cloudy 2400 ft
Overcast 4700 ft
Windchill 44 °F
Dew Point 41 °F
Humidity 90%
Rainfall 0.00 in
Snow Depth Not available.
UV 0 out of 12
Pollen 7.80 out of 12
Air Quality Not available.
Flu Activity Not available.
METAR KSBD 030449Z 08006KT 10SM BKN024 OVC047 09/04 A2998

More Conditions Fewer Conditions

10-Day Weather Forecast

Almanac

Astronomy

Mar. 02, 2015 Rise Set
Actual Time
Civil Twilight
Nautical Twilight
Astronomical Twilight
Moon
Length of Visible Light
Length of Day
Tomorrow will be .
, % of the Moon is Illuminated

Today's Extremes

State Highs State Lows

Community

WunderPhotos

Upload Photos

1,802,066 photos uploaded!

WunderBlogs® & News

Nearby

Air Quality

  Air Quality AQ Index Pollutant
Not available.

Snow Depth

Station Depth Elevation

Earthquake Activity

City Distance Mag. Time & Date
Minimum magnitude displayed is 2.5.

Coastal Water Temperatures

Place Temperature

Nearby Weather Stations